Time;durP1;ratioP1;P1;durP2;ratioP2;P2;SDS_P1;SDS_P2;PMS_P1;PMS_P2;Temp;Humidity;BMP_temperature;BMP_pressure;BME280_temperature;BME280_humidity;BME280_pressure;Samples;Min_cycle;Max_cycle;Signal;HPM_P1;HPM_P2
2022/03/31 00:01:33;;;;;;;15.93;7.97;;;9.60;99.90;;;;;;5074936;28;20564;-86
2022/03/31 00:03:59;;;;;;;15.52;8.20;;;9.70;99.90;;;;;;5079351;28;20028;-85
2022/03/31 00:06:25;;;;;;;17.42;8.00;;;9.70;99.90;;;;;;5090533;28;20524;-85
2022/03/31 00:08:50;;;;;;;17.35;9.38;;;9.60;99.90;;;;;;5092088;28;20485;-86
2022/03/31 00:11:18;;;;;;;19.85;10.18;;;9.50;99.90;;;;;;5092939;28;20481;-86
2022/03/31 00:13:43;;;;;;;18.05;8.80;;;9.40;99.90;;;;;;5091661;28;20079;-86
2022/03/31 00:16:10;;;;;;;12.35;7.97;;;9.50;99.90;;;;;;5082558;28;20509;-86
2022/03/31 00:18:37;;;;;;;17.05;9.30;;;9.50;99.90;;;;;;5075011;28;20132;-86
2022/03/31 00:21:03;;;;;;;16.38;9.00;;;9.40;99.90;;;;;;5086945;28;20036;-87
2022/03/31 00:23:29;;;;;;;26.88;11.82;;;9.40;99.90;;;;;;5088491;28;20056;-86
2022/03/31 00:25:55;;;;;;;22.23;11.25;;;9.30;99.90;;;;;;5091482;28;20034;-86
2022/03/31 00:28:22;;;;;;;21.92;11.43;;;9.30;99.90;;;;;;5090496;28;20074;-86
2022/03/31 00:30:48;;;;;;;18.63;10.02;;;9.30;99.90;;;;;;5091332;28;20020;-85
2022/03/31 00:33:14;;;;;;;23.20;10.63;;;9.30;99.90;;;;;;5087096;28;20066;-86
2022/03/31 00:35:40;;;;;;;19.92;10.95;;;9.30;99.90;;;;;;5089131;28;20028;-86
2022/03/31 00:38:06;;;;;;;21.30;9.75;;;9.30;99.90;;;;;;5083698;28;20506;-86
2022/03/31 00:40:32;;;;;;;21.23;11.35;;;9.30;99.90;;;;;;5089090;28;20096;-87
2022/03/31 00:42:58;;;;;;;22.38;10.57;;;9.30;99.90;;;;;;5084519;28;20039;-86
2022/03/31 00:45:28;;;;;;;21.70;10.20;;;9.30;99.90;;;;;;5075170;28;20032;-86
2022/03/31 00:47:56;;;;;;;21.95;10.50;;;9.30;99.90;;;;;;5075072;28;20099;-86
2022/03/31 00:50:22;;;;;;;22.95;10.65;;;9.30;99.90;;;;;;5091036;28;20020;-87
2022/03/31 00:52:48;;;;;;;24.60;11.05;;;9.30;99.90;;;;;;5088250;28;20105;-86
2022/03/31 00:55:16;;;;;;;19.60;11.40;;;9.30;99.90;;;;;;5082623;28;20048;-86
2022/03/31 00:57:43;;;;;;;24.08;11.52;;;9.30;99.90;;;;;;5091246;28;20046;-86
2022/03/31 01:00:11;;;;;;;21.58;11.73;;;9.30;99.90;;;;;;5086958;28;20032;-86
2022/03/31 01:02:38;;;;;;;23.17;10.57;;;9.30;99.90;;;;;;5086985;28;20064;-86
2022/03/31 01:05:06;;;;;;;22.98;10.63;;;9.30;99.90;;;;;;5082242;28;20039;-86
2022/03/31 01:07:35;;;;;;;18.70;11.02;;;9.30;99.90;;;;;;5082010;28;20035;-86
2022/03/31 01:10:03;;;;;;;21.15;10.43;;;9.30;99.90;;;;;;5081912;28;20016;-86
2022/03/31 01:12:29;;;;;;;23.58;12.18;;;9.20;99.90;;;;;;5091216;28;20048;-86
2022/03/31 01:15:26;;;;;;;22.88;11.40;;;9.20;99.90;;;;;;5071782;28;20044;-87
2022/03/31 01:17:53;;;;;;;21.73;10.38;;;9.20;99.90;;;;;;5087606;28;20047;-86
2022/03/31 01:20:20;;;;;;;15.60;10.27;;;9.20;99.90;;;;;;5076287;28;20116;-87
2022/03/31 01:22:48;;;;;;;24.42;10.82;;;9.20;99.90;;;;;;5076680;28;20024;-87
2022/03/31 01:25:14;;;;;;;23.38;10.60;;;9.20;99.90;;;;;;5070806;28;20039;-87
2022/03/31 01:27:43;;;;;;;16.55;9.70;;;9.20;99.90;;;;;;5072957;28;20066;-87
2022/03/31 01:30:13;;;;;;;19.13;11.05;;;9.20;99.90;;;;;;5072923;28;20032;-87
2022/03/31 01:32:39;;;;;;;20.95;10.02;;;9.20;99.90;;;;;;5076451;28;20021;-86
2022/03/31 01:35:06;;;;;;;20.45;9.65;;;9.20;99.90;;;;;;5081604;28;20050;-87
2022/03/31 01:37:31;;;;;;;21.85;9.82;;;9.20;99.90;;;;;;5084303;28;20110;-86
2022/03/31 01:39:57;;;;;;;21.10;9.05;;;9.30;99.90;;;;;;5089186;28;20103;-87
2022/03/31 01:42:23;;;;;;;18.48;10.05;;;9.30;99.90;;;;;;5089493;28;20416;-87
2022/03/31 01:44:49;;;;;;;20.98;9.52;;;9.30;99.90;;;;;;5073476;28;20635;-86
2022/03/31 01:47:16;;;;;;;19.65;10.10;;;9.20;99.90;;;;;;5084998;28;20047;-86
2022/03/31 01:49:42;;;;;;;28.90;11.70;;;9.30;99.90;;;;;;5079410;28;20024;-87
2022/03/31 01:52:07;;;;;;;21.55;10.23;;;9.20;99.90;;;;;;5076947;28;20497;-87
2022/03/31 01:54:36;;;;;;;24.55;11.88;;;9.20;99.90;;;;;;5077160;28;20040;-87
2022/03/31 01:57:02;;;;;;;23.95;10.80;;;9.20;99.90;;;;;;5089196;28;20551;-86
2022/03/31 01:59:46;;;;;;;23.77;11.32;;;9.30;99.90;;;;;;5090127;28;20024;-87
2022/03/31 02:02:13;;;;;;;22.30;10.10;;;9.30;99.90;;;;;;5091063;28;20107;-87
2022/03/31 02:04:40;;;;;;;22.20;11.18;;;9.30;99.90;;;;;;5073558;28;20032;-86
2022/03/31 02:07:07;;;;;;;21.27;10.15;;;9.30;99.90;;;;;;5075341;28;20024;-86
2022/03/31 02:09:33;;;;;;;23.38;11.82;;;9.30;99.90;;;;;;5076560;28;20031;-87
2022/03/31 02:11:59;;;;;;;22.95;11.38;;;9.20;99.90;;;;;;5089488;28;20020;-87
2022/03/31 02:14:25;;;;;;;24.73;11.85;;;9.20;99.90;;;;;;5071358;28;20494;-86
2022/03/31 02:16:51;;;;;;;27.05;11.95;;;9.20;99.90;;;;;;5082504;28;20028;-87
2022/03/31 02:19:17;;;;;;;21.27;11.10;;;9.20;99.90;;;;;;5083441;28;20070;-86
2022/03/31 02:21:44;;;;;;;26.02;11.60;;;9.20;99.90;;;;;;5072668;28;20095;-86
2022/03/31 02:24:11;;;;;;;20.67;10.07;;;9.20;99.90;;;;;;5073558;28;20031;-87
2022/03/31 02:26:37;;;;;;;19.75;10.88;;;9.20;99.90;;;;;;5090200;28;20047;-87
2022/03/31 02:29:03;;;;;;;23.00;11.90;;;9.20;99.90;;;;;;5089067;28;20448;-87
2022/03/31 02:31:30;;;;;;;22.23;12.05;;;9.10;99.90;;;;;;5089540;28;20020;-87
2022/03/31 02:33:56;;;;;;;23.38;12.13;;;9.20;99.90;;;;;;5088472;28;20020;-87
2022/03/31 02:36:23;;;;;;;23.42;11.00;;;9.20;99.90;;;;;;5088555;28;20119;-86
2022/03/31 02:38:49;;;;;;;25.85;10.77;;;9.10;99.90;;;;;;5089803;28;20024;-87
2022/03/31 02:41:14;;;;;;;22.08;10.60;;;9.10;99.90;;;;;;5078354;28;20434;-87
2022/03/31 02:43:40;;;;;;;24.65;11.77;;;9.10;99.90;;;;;;5084454;28;20556;-87
2022/03/31 02:46:06;;;;;;;23.30;11.52;;;9.10;99.90;;;;;;5087811;28;20493;-86
2022/03/31 02:48:32;;;;;;;20.83;9.82;;;9.10;99.90;;;;;;5087846;28;20107;-87
2022/03/31 02:50:58;;;;;;;20.75;9.73;;;9.10;99.90;;;;;;5087408;28;20118;-87
2022/03/31 02:56:08;;;;;;;25.70;10.73;;;9.00;99.90;;;;;;5081619;28;20132;-87
2022/03/31 02:58:34;;;;;;;19.48;10.63;;;9.00;99.90;;;;;;5075209;28;20107;-87
2022/03/31 03:01:00;;;;;;;19.63;10.73;;;9.00;99.90;;;;;;5079028;28;20024;-87
2022/03/31 03:03:27;;;;;;;21.55;11.45;;;9.00;99.90;;;;;;5087433;28;20020;-87
2022/03/31 03:05:52;;;;;;;23.50;11.35;;;9.00;99.90;;;;;;5086923;28;20405;-87
2022/03/31 03:08:19;;;;;;;23.13;10.80;;;9.00;99.90;;;;;;5074401;28;20028;-87
2022/03/31 03:10:45;;;;;;;19.35;9.50;;;9.00;99.90;;;;;;5081099;28;20600;-87
2022/03/31 03:13:11;;;;;;;26.33;11.25;;;9.00;99.90;;;;;;5089204;28;20107;-87
2022/03/31 03:15:37;;;;;;;26.23;12.45;;;9.00;99.90;;;;;;5086319;28;20055;-88
2022/03/31 03:18:03;;;;;;;21.52;10.70;;;9.00;99.90;;;;;;5071696;28;20077;-87
2022/03/31 03:20:28;;;;;;;22.75;11.18;;;9.00;99.90;;;;;;5090857;28;20435;-86
2022/03/31 03:22:55;;;;;;;22.85;11.40;;;9.00;99.90;;;;;;5080581;28;20031;-88
2022/03/31 03:25:23;;;;;;;24.02;11.55;;;9.00;99.90;;;;;;5081644;28;20032;-87
2022/03/31 03:27:50;;;;;;;23.77;10.63;;;9.00;99.90;;;;;;5086102;28;20016;-88
2022/03/31 03:30:18;;;;;;;20.15;9.50;;;9.00;99.90;;;;;;5086611;28;20078;-87
2022/03/31 03:32:45;;;;;;;22.42;11.05;;;9.00;99.90;;;;;;5088246;28;20020;-86
2022/03/31 03:35:12;;;;;;;24.05;10.90;;;9.00;99.90;;;;;;5081943;28;20073;-87
2022/03/31 03:37:39;;;;;;;24.98;10.75;;;8.90;99.90;;;;;;5086662;28;20024;-87
2022/03/31 03:40:06;;;;;;;27.25;11.25;;;8.90;99.90;;;;;;5087996;28;20024;-87
2022/03/31 03:42:33;;;;;;;21.60;11.25;;;8.90;99.90;;;;;;5086402;28;20048;-87
2022/03/31 03:44:59;;;;;;;27.33;11.05;;;9.00;99.90;;;;;;5088510;28;20101;-86
2022/03/31 03:47:26;;;;;;;20.35;10.82;;;9.00;99.90;;;;;;5088015;28;20539;-87
2022/03/31 03:49:52;;;;;;;27.75;12.50;;;9.00;99.90;;;;;;5092263;28;20031;-87
2022/03/31 03:52:18;;;;;;;28.80;12.50;;;9.00;99.90;;;;;;5086342;28;20024;-87
2022/03/31 03:54:44;;;;;;;22.63;11.75;;;8.90;99.90;;;;;;5078816;28;20071;-85
2022/03/31 03:57:10;;;;;;;26.23;12.05;;;8.90;99.90;;;;;;5089283;28;20048;-87
2022/03/31 03:59:36;;;;;;;25.23;11.05;;;9.00;99.90;;;;;;5088036;28;20550;-87
2022/03/31 04:02:04;;;;;;;22.52;11.40;;;8.90;99.90;;;;;;5090132;28;20071;-86
2022/03/31 04:04:29;;;;;;;23.17;13.00;;;8.90;99.90;;;;;;5086334;28;20024;-87
2022/03/31 04:06:58;;;;;;;30.38;12.07;;;8.90;99.90;;;;;;5082439;28;20552;-87
2022/03/31 04:09:24;;;;;;;24.85;11.02;;;8.90;99.90;;;;;;5075047;28;20520;-87
2022/03/31 04:11:51;;;;;;;20.20;10.85;;;8.90;99.90;;;;;;5089269;28;20599;-86
2022/03/31 04:14:17;;;;;;;18.73;9.75;;;8.90;99.90;;;;;;5093375;28;20020;-86
2022/03/31 04:16:43;;;;;;;21.27;11.10;;;9.00;99.90;;;;;;5089884;28;20051;-87
2022/03/31 04:19:09;;;;;;;18.02;10.57;;;8.90;99.90;;;;;;5091274;28;20027;-86
2022/03/31 04:21:36;;;;;;;22.85;10.25;;;8.90;99.90;;;;;;5084971;28;20448;-86
2022/03/31 04:24:02;;;;;;;16.80;9.40;;;8.90;99.90;;;;;;5088098;28;20032;-87
2022/03/31 04:26:28;;;;;;;16.98;8.73;;;9.00;99.90;;;;;;5087997;28;20112;-86
2022/03/31 04:28:54;;;;;;;15.48;8.70;;;9.00;99.90;;;;;;5085158;28;20107;-86
2022/03/31 04:31:19;;;;;;;23.48;8.90;;;9.00;99.90;;;;;;5089637;28;20028;-86
2022/03/31 04:33:45;;;;;;;23.98;10.00;;;9.00;99.90;;;;;;5090265;28;20433;-86
2022/03/31 04:36:11;;;;;;;17.00;9.65;;;8.90;99.90;;;;;;5090696;28;20028;-87
2022/03/31 04:38:36;;;;;;;18.77;9.88;;;8.90;99.90;;;;;;5088795;28;20016;-87
2022/03/31 04:41:02;;;;;;;22.70;10.98;;;8.90;99.90;;;;;;5079556;28;20482;-87
2022/03/31 04:43:28;;;;;;;19.35;10.57;;;8.90;99.90;;;;;;5086477;28;20031;-87
2022/03/31 04:45:54;;;;;;;20.65;10.45;;;8.90;99.90;;;;;;5091229;28;20028;-87
2022/03/31 04:48:20;;;;;;;25.33;11.68;;;8.90;99.90;;;;;;5091176;28;20024;-87
2022/03/31 04:50:46;;;;;;;29.02;10.85;;;8.90;99.90;;;;;;5092010;28;20158;-87
2022/03/31 04:53:12;;;;;;;27.63;12.68;;;8.90;99.90;;;;;;5074784;28;20482;-87
2022/03/31 04:55:39;;;;;;;21.25;11.80;;;8.90;99.90;;;;;;5086610;28;20225;-86
2022/03/31 04:58:05;;;;;;;25.27;11.95;;;9.00;99.90;;;;;;5087943;28;20035;-87
2022/03/31 05:00:31;;;;;;;22.95;11.80;;;9.00;99.90;;;;;;5077668;28;20039;-87
2022/03/31 05:02:59;;;;;;;25.65;12.23;;;8.90;99.90;;;;;;5090541;28;20448;-87
2022/03/31 05:05:25;;;;;;;28.48;12.68;;;8.90;99.90;;;;;;5091174;28;20024;-87
2022/03/31 05:07:51;;;;;;;25.80;12.20;;;8.90;99.90;;;;;;5090676;28;20028;-87
2022/03/31 05:10:17;;;;;;;25.67;12.65;;;8.90;99.90;;;;;;5083881;28;20507;-87
2022/03/31 05:12:43;;;;;;;31.90;14.27;;;8.90;99.90;;;;;;5083183;28;20047;-87
2022/03/31 05:15:09;;;;;;;29.83;13.13;;;8.90;99.90;;;;;;5089192;28;20485;-87
2022/03/31 05:17:35;;;;;;;31.00;14.77;;;8.90;99.90;;;;;;5091941;28;20024;-86
2022/03/31 05:20:12;;;;;;;34.70;15.10;;;8.80;99.90;;;;;;5082018;28;20561;-86
2022/03/31 05:22:39;;;;;;;30.63;14.05;;;8.80;99.90;;;;;;5082370;28;20111;-87
2022/03/31 05:25:07;;;;;;;29.98;14.70;;;8.90;99.90;;;;;;5089453;28;20059;-87
2022/03/31 05:27:39;;;;;;;29.30;14.10;;;8.80;99.90;;;;;;5088899;28;20055;-87
2022/03/31 05:30:06;;;;;;;35.10;15.52;;;8.80;99.90;;;;;;5087398;28;20020;-86
2022/03/31 05:32:32;;;;;;;28.55;15.00;;;8.80;99.90;;;;;;5086960;28;20028;-87
2022/03/31 05:34:58;;;;;;;26.55;13.95;;;8.80;99.90;;;;;;5082527;28;20021;-87
2022/03/31 05:37:23;;;;;;;31.27;14.63;;;8.80;99.90;;;;;;5084264;28;20036;-87
2022/03/31 05:39:50;;;;;;;31.30;15.15;;;8.80;99.90;;;;;;5090241;28;20023;-87
2022/03/31 05:42:16;;;;;;;36.75;16.25;;;8.80;99.90;;;;;;5086160;28;20032;-86
2022/03/31 05:44:41;;;;;;;29.33;15.38;;;8.80;99.90;;;;;;5075194;28;20017;-86
2022/03/31 05:47:08;;;;;;;27.65;14.85;;;8.80;99.90;;;;;;5082366;28;20036;-87
2022/03/31 05:49:33;;;;;;;27.80;15.52;;;8.80;99.90;;;;;;5088508;28;20031;-86
2022/03/31 05:51:59;;;;;;;28.58;15.88;;;8.80;99.90;;;;;;5081662;28;20029;-86
2022/03/31 05:54:25;;;;;;;34.78;16.60;;;8.90;99.90;;;;;;5084242;28;20526;-87
2022/03/31 05:56:51;;;;;;;40.45;16.50;;;8.80;99.90;;;;;;5086796;28;20040;-86
2022/03/31 05:59:16;;;;;;;41.22;19.23;;;8.80;99.90;;;;;;5084208;28;20078;-86
2022/03/31 06:01:42;;;;;;;35.20;17.83;;;8.80;99.90;;;;;;5089408;28;20031;-87
2022/03/31 06:04:08;;;;;;;34.50;16.67;;;8.80;99.90;;;;;;5089416;28;20051;-87
2022/03/31 06:06:34;;;;;;;40.08;18.10;;;8.90;99.90;;;;;;5082714;28;20028;-87
2022/03/31 06:09:00;;;;;;;40.03;19.40;;;8.80;99.90;;;;;;5072127;28;20029;-87
2022/03/31 06:11:26;;;;;;;45.60;21.00;;;8.90;99.90;;;;;;5091610;28;20028;-87
2022/03/31 06:13:51;;;;;;;54.75;24.10;;;8.90;99.90;;;;;;5087718;28;20016;-87
2022/03/31 06:16:17;;;;;;;50.72;23.23;;;8.90;99.90;;;;;;5077581;28;20549;-85
2022/03/31 06:18:44;;;;;;;54.13;24.92;;;8.90;99.90;;;;;;5078368;28;20498;-86
2022/03/31 06:21:09;;;;;;;60.63;26.40;;;8.80;99.90;;;;;;5090177;28;20020;-86
2022/03/31 06:23:35;;;;;;;57.55;25.58;;;8.90;99.90;;;;;;5075435;28;20020;-87
2022/03/31 06:26:01;;;;;;;62.92;27.08;;;8.90;99.90;;;;;;5087691;28;20028;-86
2022/03/31 06:28:28;;;;;;;57.90;25.98;;;8.90;99.90;;;;;;5081354;28;20115;-87
2022/03/31 06:30:55;;;;;;;54.50;24.35;;;8.90;99.90;;;;;;5079666;28;20081;-87
2022/03/31 06:33:21;;;;;;;62.55;25.00;;;9.00;99.90;;;;;;5087225;28;20016;-86
2022/03/31 06:35:48;;;;;;;50.60;22.77;;;9.00;99.90;;;;;;5090081;28;20477;-87
2022/03/31 06:38:14;;;;;;;52.28;24.20;;;9.00;99.90;;;;;;5089558;28;20016;-86
2022/03/31 06:40:41;;;;;;;50.45;21.90;;;9.00;99.90;;;;;;5080506;28;20498;-86
2022/03/31 06:43:07;;;;;;;52.38;23.95;;;9.00;99.90;;;;;;5079060;28;20027;-87
2022/03/31 06:45:34;;;;;;;45.45;22.65;;;9.00;99.90;;;;;;5089200;28;20141;-86
2022/03/31 06:48:02;;;;;;;47.33;24.02;;;9.00;99.90;;;;;;5087654;28;20527;-86
2022/03/31 06:50:32;;;;;;;48.88;23.70;;;9.10;99.90;;;;;;5077491;28;20067;-87
2022/03/31 06:52:58;;;;;;;53.38;25.58;;;9.10;99.90;;;;;;5087941;28;20016;-86
2022/03/31 06:55:24;;;;;;;45.72;20.55;;;9.10;99.90;;;;;;5088617;28;20044;-86
2022/03/31 06:57:50;;;;;;;41.85;19.98;;;9.10;99.90;;;;;;5089118;28;20039;-87
2022/03/31 07:00:16;;;;;;;45.15;21.90;;;9.20;99.90;;;;;;5087699;28;20702;-87
2022/03/31 07:02:41;;;;;;;42.17;20.92;;;9.20;99.90;;;;;;5072977;28;20025;-87
2022/03/31 07:05:07;;;;;;;36.95;18.75;;;9.20;99.90;;;;;;5089925;28;20040;-86
2022/03/31 07:07:33;;;;;;;41.70;19.00;;;9.20;99.90;;;;;;5083148;28;20024;-86
2022/03/31 07:10:00;;;;;;;37.30;17.63;;;9.20;99.90;;;;;;5088982;28;20571;-86
2022/03/31 07:12:26;;;;;;;41.67;19.95;;;9.20;99.90;;;;;;5087340;28;20498;-86
2022/03/31 07:14:52;;;;;;;38.85;17.83;;;9.20;99.90;;;;;;5088267;28;20021;-86
2022/03/31 07:17:17;;;;;;;40.28;19.38;;;9.20;99.90;;;;;;5093952;28;20028;-86
2022/03/31 07:19:43;;;;;;;36.97;17.70;;;9.10;99.90;;;;;;5083005;28;20116;-87
2022/03/31 07:22:09;;;;;;;36.85;17.05;;;9.10;99.90;;;;;;5078856;28;20567;-86
2022/03/31 07:24:34;;;;;;;37.72;17.35;;;9.10;99.90;;;;;;5073621;28;20563;-86
2022/03/31 07:27:01;;;;;;;34.05;19.40;;;9.00;99.90;;;;;;5090242;28;20024;-87
2022/03/31 07:29:28;;;;;;;34.20;17.27;;;9.10;99.90;;;;;;5094217;28;20043;-87
2022/03/31 07:31:54;;;;;;;37.08;17.92;;;9.10;99.90;;;;;;5092688;28;20084;-86
2022/03/31 07:34:19;;;;;;;39.05;19.20;;;9.10;99.90;;;;;;5083700;28;20048;-87
2022/03/31 07:36:45;;;;;;;41.70;19.08;;;9.10;99.90;;;;;;5092228;28;20301;-86
2022/03/31 07:39:11;;;;;;;39.55;19.52;;;9.10;99.90;;;;;;5089245;28;20410;-86
2022/03/31 07:41:36;;;;;;;35.28;18.15;;;9.10;99.90;;;;;;5074062;28;20085;-86
2022/03/31 07:44:02;;;;;;;39.58;20.73;;;9.10;99.90;;;;;;5083463;28;20028;-87
2022/03/31 07:46:32;;;;;;;36.65;18.67;;;9.10;99.90;;;;;;5083518;28;20505;-87
2022/03/31 07:48:59;;;;;;;40.28;18.35;;;9.20;99.90;;;;;;5083866;28;20031;-87
2022/03/31 07:51:26;;;;;;;41.58;19.08;;;9.30;99.90;;;;;;5089380;28;20028;-86
2022/03/31 07:53:52;;;;;;;35.75;17.70;;;9.40;99.90;;;;;;5092151;28;20027;-87
2022/03/31 07:56:18;;;;;;;36.42;15.95;;;9.40;99.90;;;;;;5078005;28;20044;-86
2022/03/31 07:58:43;;;;;;;31.05;15.65;;;9.40;99.90;;;;;;5086923;28;20512;-87
2022/03/31 08:01:09;;;;;;;33.10;16.45;;;9.40;99.90;;;;;;5084267;28;20528;-87
2022/03/31 08:03:35;;;;;;;33.90;16.92;;;9.40;99.90;;;;;;5073855;28;20060;-87
2022/03/31 08:06:00;;;;;;;34.53;16.55;;;9.40;99.90;;;;;;5074764;28;20105;-86
2022/03/31 08:08:28;;;;;;;28.88;15.63;;;9.40;99.90;;;;;;5093610;28;20024;-86
2022/03/31 08:10:53;;;;;;;30.83;15.32;;;9.50;99.90;;;;;;5091921;28;20107;-86
2022/03/31 08:13:24;;;;;;;35.72;16.90;;;9.60;99.90;;;;;;5086103;28;20346;-87
2022/03/31 08:15:52;;;;;;;33.40;17.05;;;9.50;99.90;;;;;;5090246;28;20020;-86
2022/03/31 08:18:18;;;;;;;38.35;17.02;;;9.50;99.90;;;;;;5091740;28;20064;-86
2022/03/31 08:20:44;;;;;;;34.42;17.45;;;9.60;99.90;;;;;;5092775;28;20031;-86
2022/03/31 08:23:09;;;;;;;34.50;16.15;;;9.70;99.90;;;;;;5084847;28;20063;-86
2022/03/31 08:25:35;;;;;;;34.63;15.10;;;9.70;99.90;;;;;;5082143;28;20028;-86
2022/03/31 08:28:01;;;;;;;28.27;14.48;;;9.70;99.90;;;;;;5079600;28;20032;-86
2022/03/31 08:30:28;;;;;;;32.95;14.82;;;9.60;99.90;;;;;;5087374;28;20498;-86
2022/03/31 08:32:54;;;;;;;28.50;14.98;;;9.60;99.90;;;;;;5089733;28;20016;-87
2022/03/31 08:35:20;;;;;;;31.95;15.57;;;9.50;99.90;;;;;;5093452;28;20027;-87
2022/03/31 08:37:46;;;;;;;31.15;14.73;;;9.50;99.90;;;;;;5080951;28;20039;-87
2022/03/31 08:40:13;;;;;;;26.92;13.75;;;9.50;99.90;;;;;;5081946;28;20024;-87
2022/03/31 08:42:40;;;;;;;28.55;14.00;;;9.40;99.90;;;;;;5087676;28;20027;-87
2022/03/31 08:45:09;;;;;;;32.38;12.98;;;9.30;99.90;;;;;;5074545;28;20024;-86
2022/03/31 08:47:36;;;;;;;27.05;13.80;;;9.30;99.90;;;;;;5092553;28;20024;-86
2022/03/31 08:50:02;;;;;;;25.40;13.43;;;9.40;99.90;;;;;;5077726;28;20082;-87
2022/03/31 08:52:28;;;;;;;22.92;12.55;;;9.50;99.90;;;;;;5085669;28;20032;-87
2022/03/31 08:54:53;;;;;;;24.25;12.73;;;9.50;99.90;;;;;;5085231;28;20043;-87
2022/03/31 08:57:20;;;;;;;24.20;12.68;;;9.50;99.90;;;;;;5091301;28;20070;-87
2022/03/31 08:59:46;;;;;;;21.85;12.43;;;9.60;99.90;;;;;;5075504;28;20023;-86
2022/03/31 09:02:27;;;;;;;30.10;13.90;;;9.90;99.90;;;;;;5091325;28;20028;-87
2022/03/31 09:05:09;;;;;;;25.05;12.85;;;10.10;99.90;;;;;;5088638;28;20032;-87
2022/03/31 09:07:35;;;;;;;23.48;11.82;;;10.30;99.90;;;;;;5078139;28;20086;-86
2022/03/31 09:10:01;;;;;;;26.05;14.27;;;10.30;99.90;;;;;;5081762;28;20024;-87
2022/03/31 09:12:38;;;;;;;28.08;14.95;;;10.20;99.90;;;;;;5085246;28;20031;-86
2022/03/31 09:15:11;;;;;;;32.72;16.23;;;10.00;99.90;;;;;;5089051;28;20561;-87
2022/03/31 09:17:37;;;;;;;32.80;16.10;;;9.80;99.90;;;;;;5092318;28;20036;-86
2022/03/31 09:20:03;;;;;;;34.00;18.15;;;9.70;99.90;;;;;;5078635;28;20086;-87
2022/03/31 09:22:28;;;;;;;31.55;15.23;;;9.70;99.90;;;;;;5071299;28;20081;-87
2022/03/31 09:25:01;;;;;;;33.40;15.82;;;9.70;99.90;;;;;;5078856;28;20464;-87
2022/03/31 09:27:27;;;;;;;38.08;17.63;;;9.80;99.90;;;;;;5089602;28;20035;-87
2022/03/31 09:30:04;;;;;;;33.53;17.30;;;10.00;99.90;;;;;;5089562;28;20020;-87
2022/03/31 09:32:29;;;;;;;36.78;15.98;;;10.20;99.90;;;;;;5092198;28;20532;-87
2022/03/31 09:35:05;;;;;;;37.00;18.08;;;10.30;99.90;;;;;;5089648;28;20021;-87
2022/03/31 09:37:31;;;;;;;37.05;19.20;;;10.50;99.90;;;;;;5087638;28;20059;-87
2022/03/31 09:39:56;;;;;;;30.83;17.60;;;10.70;99.90;;;;;;5087463;28;20012;-87
2022/03/31 09:42:22;;;;;;;34.45;17.98;;;11.10;99.90;;;;;;5089022;28;20085;-87
2022/03/31 09:44:59;;;;;;;33.55;16.88;;;11.10;99.90;;;;;;5090377;28;20020;-87
2022/03/31 09:47:26;;;;;;;43.42;20.48;;;11.30;99.90;;;;;;5085303;28;20082;-87
2022/03/31 09:49:56;;;;;;;41.08;21.02;;;11.10;99.90;;;;;;5089856;28;20024;-87
2022/03/31 09:52:22;;;;;;;35.85;18.27;;;10.90;99.90;;;;;;5088248;28;20051;-87
2022/03/31 09:54:49;;;;;;;40.10;20.15;;;11.00;99.90;;;;;;5089694;28;20036;-87
2022/03/31 09:57:18;;;;;;;39.20;19.85;;;11.20;99.90;;;;;;5087040;28;20077;-87
2022/03/31 09:59:50;;;;;;;36.58;18.50;;;11.40;99.90;;;;;;5074656;28;20082;-85
2022/03/31 10:02:16;;;;;;;32.88;18.60;;;11.70;99.90;;;;;;5090114;28;20063;-86
2022/03/31 10:04:44;;;;;;;35.95;20.13;;;11.90;99.90;;;;;;5087714;28;20454;-86
2022/03/31 10:07:11;;;;;;;36.90;18.45;;;12.00;99.90;;;;;;5081538;28;20063;-86
2022/03/31 10:09:39;;;;;;;30.52;16.77;;;11.60;99.90;;;;;;5069989;28;20025;-86
2022/03/31 10:12:22;;;;;;;35.95;17.08;;;11.40;99.90;;;;;;5072084;28;20127;-85
2022/03/31 10:15:00;;;;;;;27.73;15.07;;;11.10;99.90;;;;;;5089829;28;20516;-85
2022/03/31 10:17:28;;;;;;;33.13;16.13;;;11.70;99.90;;;;;;5085327;28;20019;-86
2022/03/31 10:20:05;;;;;;;35.88;18.30;;;12.20;99.90;;;;;;5081751;28;20111;-86
2022/03/31 10:25:15;;;;;;;35.00;17.05;;;12.70;99.90;;;;;;5081847;28;20121;-86
2022/03/31 10:27:45;;;;;;;33.60;16.30;;;12.50;99.90;;;;;;5074649;28;20028;-86
2022/03/31 10:30:16;;;;;;;36.50;18.88;;;12.30;99.90;;;;;;5088543;28;20021;-86
2022/03/31 10:33:05;;;;;;;34.22;17.65;;;12.40;99.90;;;;;;5090736;28;20115;-86
2022/03/31 10:35:35;;;;;;;37.55;18.80;;;12.70;99.90;;;;;;5085799;28;20062;-86
2022/03/31 10:38:18;;;;;;;29.42;16.42;;;12.90;99.90;;;;;;5086874;28;20036;-86
2022/03/31 10:40:49;;;;;;;25.63;15.13;;;13.10;99.90;;;;;;5088038;28;20028;-86
2022/03/31 10:43:30;;;;;;;29.48;14.88;;;13.20;99.90;;;;;;5088882;28;20032;-86
2022/03/31 10:45:58;;;;;;;24.55;14.10;;;12.60;99.90;;;;;;5082103;28;20077;-86
2022/03/31 10:48:29;;;;;;;20.65;11.88;;;12.60;99.90;;;;;;5087263;28;20509;-86
2022/03/31 10:51:08;;;;;;;18.70;10.87;;;12.30;99.90;;;;;;5089847;28;20027;-86
2022/03/31 10:53:40;;;;;;;20.83;12.05;;;12.20;99.90;;;;;;5074922;28;20031;-86
2022/03/31 10:56:24;;;;;;;21.85;12.20;;;12.00;99.90;;;;;;5084784;28;20040;-87
2022/03/31 10:58:52;;;;;;;22.67;12.07;;;12.00;99.90;;;;;;5079654;28;20024;-87
2022/03/31 11:01:19;;;;;;;22.35;12.27;;;12.20;99.90;;;;;;5081117;28;20028;-86
2022/03/31 11:03:50;;;;;;;18.48;11.88;;;12.70;99.90;;;;;;5091515;28;20028;-87
2022/03/31 11:06:18;;;;;;;19.10;11.87;;;12.80;99.90;;;;;;5074166;28;20563;-86
2022/03/31 11:08:48;;;;;;;19.92;11.77;;;12.70;99.90;;;;;;5094217;28;20095;-86
2022/03/31 11:11:32;;;;;;;21.10;11.48;;;12.80;99.90;;;;;;5079534;28;20071;-86
2022/03/31 11:13:58;;;;;;;22.88;10.90;;;12.40;99.90;;;;;;5088690;28;20028;-87
2022/03/31 11:16:37;;;;;;;21.10;11.10;;;12.00;99.90;;;;;;5093214;28;20025;-86
2022/03/31 11:19:04;;;;;;;17.80;11.85;;;11.60;99.90;;;;;;5091221;28;20113;-86
2022/03/31 11:21:35;;;;;;;20.98;12.38;;;11.40;99.90;;;;;;5087230;28;20167;-86
2022/03/31 11:24:00;;;;;;;22.75;13.48;;;11.50;99.90;;;;;;5073507;28;20032;-86
2022/03/31 11:26:31;;;;;;;23.35;13.20;;;12.00;99.90;;;;;;5087439;28;20020;-86
2022/03/31 11:28:59;;;;;;;20.70;12.85;;;12.50;99.90;;;;;;5081474;28;20059;-86
2022/03/31 11:31:25;;;;;;;23.85;13.15;;;12.80;99.90;;;;;;5086005;28;20028;-87
2022/03/31 11:33:51;;;;;;;17.40;10.60;;;12.60;99.90;;;;;;5082968;28;20108;-86
2022/03/31 11:36:18;;;;;;;23.77;11.98;;;12.10;99.90;;;;;;5091534;28;20591;-86
2022/03/31 11:38:58;;;;;;;21.75;10.32;;;12.10;99.90;;;;;;5093564;28;20020;-86
2022/03/31 11:41:24;;;;;;;16.95;10.27;;;12.90;99.90;;;;;;5090999;28;20035;-86
2022/03/31 11:43:53;;;;;;;16.27;9.25;;;13.50;99.90;;;;;;5090287;28;20024;-86
2022/03/31 11:46:19;;;;;;;14.23;8.23;;;13.30;99.90;;;;;;5092360;28;20028;-87
2022/03/31 11:48:46;;;;;;;22.27;10.45;;;13.30;99.90;;;;;;5090940;28;20532;-87
2022/03/31 11:51:13;;;;;;;16.58;9.13;;;13.00;99.90;;;;;;5090806;28;20509;-86
2022/03/31 11:53:49;;;;;;;16.05;9.15;;;12.80;99.90;;;;;;5089714;28;20156;-86
2022/03/31 11:56:26;;;;;;;15.18;8.50;;;12.50;99.90;;;;;;5085972;28;20094;-86
2022/03/31 11:58:57;;;;;;;18.63;9.43;;;13.00;99.90;;;;;;5079900;28;20086;-86
2022/03/31 12:01:43;;;;;;;18.45;10.02;;;13.10;99.90;;;;;;5083216;28;20055;-86
2022/03/31 12:04:31;;;;;;;15.60;9.93;;;13.20;99.90;;;;;;5092154;28;20031;-87
2022/03/31 12:06:59;;;;;;;16.70;9.45;;;13.30;99.90;;;;;;5086327;28;20149;-86
2022/03/31 12:09:28;;;;;;;22.15;9.88;;;13.90;99.90;;;;;;5091813;28;20028;-86
2022/03/31 12:11:58;;;;;;;13.70;7.85;;;14.10;99.90;;;;;;5074831;28;20021;-87
2022/03/31 12:14:25;;;;;;;16.10;8.95;;;13.90;99.90;;;;;;5093743;28;20016;-87
2022/03/31 12:16:56;;;;;;;16.02;8.98;;;13.40;99.90;;;;;;5089754;28;20069;-87
2022/03/31 12:19:22;;;;;;;14.93;8.82;;;13.10;99.60;;;;;;5091603;28;20024;-86
2022/03/31 12:21:52;;;;;;;13.27;8.43;;;13.10;99.30;;;;;;5091560;28;20115;-86
2022/03/31 12:24:18;;;;;;;16.02;8.57;;;13.10;99.70;;;;;;5076228;28;20055;-87
2022/03/31 12:27:02;;;;;;;16.13;8.45;;;13.00;99.90;;;;;;5092859;28;20030;-86
2022/03/31 12:29:32;;;;;;;15.77;8.52;;;12.80;99.90;;;;;;5073321;28;20035;-87
2022/03/31 12:32:07;;;;;;;18.83;8.30;;;13.50;99.90;;;;;;5088337;28;20017;-87
2022/03/31 12:34:56;;;;;;;18.27;8.65;;;13.50;99.90;;;;;;5091901;28;20024;-87
2022/03/31 12:37:30;;;;;;;15.45;8.30;;;13.20;99.90;;;;;;5081492;28;20035;-87
2022/03/31 12:39:57;;;;;;;14.15;8.05;;;13.20;99.90;;;;;;5081263;28;20043;-87
2022/03/31 12:42:23;;;;;;;12.43;7.55;;;13.00;99.90;;;;;;5090324;28;20039;-87
2022/03/31 12:44:49;;;;;;;13.88;7.28;;;13.00;98.70;;;;;;5091653;28;20028;-85